createdAt,value
2019-04-23T00:00:26.463Z,3.20
2019-04-23T00:02:58.808Z,2.83
2019-04-23T00:05:41.833Z,2.47
2019-04-23T00:08:09.706Z,2.67
2019-04-23T00:10:38.854Z,2.53
2019-04-23T00:13:05.672Z,3.97
2019-04-23T00:16:08.504Z,3.60
2019-04-23T00:21:13.745Z,3.70
2019-04-23T00:23:44.635Z,3.47
2019-04-23T00:26:16.262Z,4.17
2019-04-23T00:28:50.758Z,3.90
2019-04-23T00:31:18.362Z,3.10
2019-04-23T00:33:44.818Z,3.20
2019-04-23T00:36:23.045Z,4.83
2019-04-23T00:38:59.255Z,3.47
2019-04-23T00:41:16.430Z,3.70
2019-04-23T00:43:54.549Z,4.40
2019-04-23T00:46:26.383Z,4.17
2019-04-23T00:48:57.758Z,4.43
2019-04-23T00:51:23.880Z,3.63
2019-04-23T00:53:56.828Z,3.40
2019-04-23T00:59:02.733Z,4.03
2019-04-23T01:04:23.108Z,5.00
2019-04-23T01:06:44.617Z,5.27
2019-04-23T01:09:10.459Z,4.27
2019-04-23T01:11:46.589Z,4.53
2019-04-23T01:14:13.414Z,5.63
2019-04-23T01:17:06.109Z,5.10
2019-04-23T01:21:47.521Z,5.40
2019-04-23T01:24:41.903Z,5.53
2019-04-23T01:32:42.490Z,5.17
2019-04-23T01:35:17.202Z,5.47
2019-04-23T01:37:58.194Z,4.97
2019-04-23T01:40:19.196Z,5.53
2019-04-23T01:47:54.839Z,4.43
2019-04-23T01:50:32.711Z,3.93
2019-04-23T01:53:03.957Z,6.53
2019-04-23T02:00:47.706Z,4.10
2019-04-23T02:05:42.889Z,5.93
2019-04-23T02:08:08.362Z,5.90
2019-04-23T02:13:16.356Z,5.30
2019-04-23T02:15:45.945Z,5.80
2019-04-23T02:18:17.964Z,6.70
2019-04-23T02:20:55.931Z,4.43
2019-04-23T02:26:04.789Z,4.73
2019-04-23T02:31:40.377Z,6.20
2019-04-23T02:33:53.522Z,6.10
2019-04-23T02:41:34.646Z,6.27
2019-04-23T02:43:59.551Z,6.07
2019-04-23T02:46:33.001Z,5.10
2019-04-23T02:48:59.858Z,7.30
2019-04-23T02:51:27.234Z,7.10
2019-04-23T02:54:04.012Z,7.23
2019-04-23T02:56:45.322Z,7.57
2019-04-23T03:06:38.470Z,6.77
2019-04-23T03:10:15.401Z,7.80
2019-04-23T03:11:41.829Z,7.27
2019-04-23T03:14:18.588Z,6.40
2019-04-23T03:34:21.025Z,7.60
2019-04-23T03:35:09.773Z,8.80
2019-04-23T03:37:39.662Z,7.10
2019-04-23T03:40:07.922Z,7.90
2019-04-23T03:45:29.878Z,7.73
2019-04-23T03:47:52.517Z,8.33
2019-04-23T03:50:35.383Z,8.00
2019-04-23T03:52:50.634Z,8.60
2019-04-23T03:57:52.741Z,10.30
2019-04-23T04:00:35.235Z,7.90
2019-04-23T04:03:50.235Z,10.05
2019-04-23T04:08:13.342Z,7.43
2019-04-23T04:10:36.039Z,9.07
2019-04-23T04:13:08.718Z,10.50
2019-04-23T04:15:53.408Z,10.83
2019-04-23T04:18:28.653Z,8.70
2019-04-23T04:20:53.861Z,6.77
2019-04-23T04:23:22.510Z,10.60
2019-04-23T04:25:53.510Z,8.60
2019-04-23T04:28:19.521Z,10.43
2019-04-23T04:36:13.126Z,12.97
2019-04-23T04:38:36.690Z,12.13
2019-04-23T04:41:04.266Z,12.20
2019-04-23T04:43:32.119Z,12.10
2019-04-23T04:48:33.303Z,11.50
2019-04-23T04:51:11.421Z,12.13
2019-04-23T04:56:20.955Z,13.83
2019-04-23T04:59:09.344Z,12.17
2019-04-23T05:03:29.706Z,13.53
2019-04-23T05:08:48.183Z,14.07
2019-04-23T05:11:21.504Z,15.00
2019-04-23T05:13:56.770Z,14.93
2019-04-23T05:16:16.117Z,13.27
2019-04-23T05:18:55.239Z,14.93
2019-04-23T05:21:33.153Z,13.73
2019-04-23T05:24:51.075Z,15.70
2019-04-23T05:26:27.198Z,15.40
2019-04-23T05:31:29.635Z,15.43
2019-04-23T05:34:05.952Z,10.57
2019-04-23T05:39:19.219Z,12.93
2019-04-23T05:41:41.701Z,14.60
2019-04-23T05:44:15.695Z,14.50
2019-04-23T05:46:59.915Z,12.57
2019-04-23T05:56:53.499Z,14.40
2019-04-23T05:59:24.699Z,13.63
2019-04-23T06:01:58.699Z,14.95
2019-04-23T06:04:32.462Z,14.47
2019-04-23T06:07:15.116Z,15.10
2019-04-23T06:09:31.293Z,14.73
2019-04-23T06:14:40.549Z,12.67
2019-04-23T06:19:42.490Z,14.00
2019-04-23T06:24:57.921Z,13.20
2019-04-23T06:27:24.364Z,14.40
2019-04-23T06:29:43.227Z,14.13
2019-04-23T06:32:22.744Z,13.63
2019-04-23T06:34:47.976Z,14.33
2019-04-23T06:37:28.391Z,13.33
2019-04-23T06:39:48.366Z,13.73
2019-04-23T06:42:23.110Z,13.60
2019-04-23T06:47:24.858Z,14.70
2019-04-23T06:49:55.343Z,13.00
2019-04-23T06:52:30.109Z,13.70
2019-04-23T06:57:26.952Z,13.27
2019-04-23T07:00:06.577Z,12.40
2019-04-23T07:02:42.133Z,13.53
2019-04-23T07:05:14.592Z,15.63
2019-04-23T07:10:14.758Z,12.10
2019-04-23T07:12:41.462Z,12.80
2019-04-23T07:17:39.497Z,11.83
2019-04-23T07:22:50.611Z,14.10
2019-04-23T07:25:17.785Z,13.73
2019-04-23T07:27:49.360Z,12.33
2019-04-23T07:30:31.534Z,13.63
2019-04-23T07:35:38.263Z,11.03
2019-04-23T07:38:01.798Z,11.63
2019-04-23T07:40:31.248Z,10.90
2019-04-23T07:43:08.351Z,12.13
2019-04-23T07:46:12.301Z,11.30
2019-04-23T07:48:37.024Z,11.70
2019-04-23T07:51:31.549Z,10.33
2019-04-23T07:53:48.336Z,11.87
2019-04-23T07:56:13.135Z,11.50
2019-04-23T07:58:39.288Z,11.10
2019-04-23T08:01:14.215Z,11.10
2019-04-23T08:03:48.377Z,12.30
2019-04-23T08:06:16.535Z,9.40
2019-04-23T08:08:50.563Z,11.17
2019-04-23T08:13:58.706Z,10.70
2019-04-23T08:24:43.414Z,11.17
2019-04-23T08:29:50.878Z,11.10
2019-04-23T08:32:18.653Z,12.00
2019-04-23T08:34:56.420Z,10.07
2019-04-23T08:37:26.921Z,10.03
2019-04-23T08:42:46.887Z,11.27
2019-04-23T08:45:28.675Z,9.40
2019-04-23T08:48:01.221Z,10.07
2019-04-23T08:50:27.449Z,10.30
2019-04-23T08:53:15.003Z,10.90
2019-04-23T08:55:34.885Z,10.33
2019-04-23T08:58:02.224Z,12.60
2019-04-23T09:00:33.838Z,11.07
2019-04-23T09:03:06.234Z,10.10
2019-04-23T09:08:15.110Z,9.83
2019-04-23T09:10:40.961Z,11.00
2019-04-23T09:13:33.354Z,10.43
2019-04-23T09:15:45.040Z,12.00
2019-04-23T09:18:16.431Z,14.07
2019-04-23T09:20:35.885Z,13.40
2019-04-23T09:23:23.802Z,11.47
2019-04-23T09:30:57.820Z,11.40
2019-04-23T09:33:46.829Z,10.77
2019-04-23T09:36:51.562Z,12.37
2019-04-23T09:42:31.888Z,10.17
2019-04-23T09:45:23.318Z,12.03
2019-04-23T09:48:01.541Z,11.60
2019-04-23T09:50:46.836Z,11.08
2019-04-23T09:55:38.826Z,11.87
2019-04-23T10:00:59.092Z,10.63
2019-04-23T10:03:04.863Z,11.90
2019-04-23T10:05:33.549Z,12.07
2019-04-23T10:08:03.086Z,12.03
2019-04-23T10:10:28.149Z,10.70
2019-04-23T10:12:58.111Z,11.43
2019-04-23T10:15:36.220Z,11.70
2019-04-23T10:18:02.492Z,10.97
2019-04-23T10:20:31.837Z,11.50
2019-04-23T10:23:02.247Z,11.20
2019-04-23T10:25:31.996Z,10.30
2019-04-23T10:28:06.714Z,11.10
2019-04-23T10:30:36.473Z,12.23
2019-04-23T10:33:07.520Z,11.17
2019-04-23T10:35:46.105Z,9.73
2019-04-23T10:38:14.442Z,10.70
2019-04-23T10:40:45.901Z,11.10
2019-04-23T10:43:12.993Z,11.33
2019-04-23T10:46:13.635Z,11.10
2019-04-23T10:49:31.712Z,9.27
2019-04-23T10:52:04.908Z,10.17
2019-04-23T10:54:34.280Z,11.80
2019-04-23T10:56:59.056Z,11.57
2019-04-23T10:59:40.396Z,11.30
2019-04-23T11:02:29.295Z,11.97
2019-04-23T11:10:03.669Z,9.57
2019-04-23T11:20:31.426Z,10.33
2019-04-23T11:22:58.985Z,10.80
2019-04-23T11:25:32.991Z,11.30
2019-04-23T11:28:03.065Z,10.27
2019-04-23T11:30:41.172Z,9.43
2019-04-23T11:33:09.112Z,9.27
2019-04-23T11:38:35.496Z,9.77
2019-04-23T11:41:11.749Z,11.10
2019-04-23T11:45:51.210Z,10.43
2019-04-23T11:48:33.296Z,10.43
2019-04-23T11:53:23.634Z,10.43
2019-04-23T11:56:02.641Z,10.80
2019-04-23T12:03:58.710Z,10.40
2019-04-23T12:06:36.657Z,9.87
2019-04-23T12:09:25.628Z,10.13
2019-04-23T12:12:04.183Z,8.53
2019-04-23T12:17:13.006Z,9.50
2019-04-23T12:24:56.882Z,11.60
2019-04-23T12:27:06.145Z,11.37
2019-04-23T12:40:15.686Z,10.20
2019-04-23T12:55:26.046Z,11.27
2019-04-23T13:00:25.693Z,10.20
2019-04-23T13:02:58.889Z,11.20
2019-04-23T13:08:00.535Z,9.80
2019-04-23T13:10:35.497Z,10.07
2019-04-23T13:13:11.286Z,9.77
2019-04-23T13:15:37.364Z,10.87
2019-04-23T13:18:03.023Z,10.50
2019-04-23T13:20:33.874Z,11.13
2019-04-23T13:23:11.812Z,10.17
2019-04-23T13:28:21.102Z,9.83
2019-04-23T13:33:35.127Z,10.07
2019-04-23T13:36:18.879Z,11.60
2019-04-23T13:43:43.734Z,10.73
2019-04-23T13:48:31.492Z,12.80
2019-04-23T13:51:19.493Z,11.67
2019-04-23T13:56:11.265Z,11.20
2019-04-23T13:58:44.889Z,10.87
2019-04-23T14:01:26.293Z,9.37
2019-04-23T14:03:50.487Z,10.73
2019-04-23T14:06:27.604Z,10.40
2019-04-23T14:08:55.410Z,11.03
2019-04-23T14:11:23.207Z,10.80
2019-04-23T14:14:08.544Z,10.60
2019-04-23T14:16:28.657Z,10.70
2019-04-23T14:18:58.438Z,10.70
2019-04-23T14:21:24.812Z,11.07
2019-04-23T14:26:29.645Z,10.50
2019-04-23T14:28:51.149Z,10.80
2019-04-23T14:31:42.920Z,10.13
2019-04-23T14:34:20.878Z,10.27
2019-04-23T14:41:42.514Z,10.57
2019-04-23T14:44:19.848Z,10.43
2019-04-23T14:49:25.561Z,10.03
2019-04-23T14:51:58.941Z,11.37
2019-04-23T14:57:09.842Z,9.37
2019-04-23T14:59:30.719Z,10.80
2019-04-23T15:02:05.489Z,10.30
2019-04-23T15:04:41.179Z,9.30
2019-04-23T15:07:15.646Z,10.47
2019-04-23T15:09:53.459Z,11.63
2019-04-23T15:12:25.958Z,9.33
2019-04-23T15:14:51.179Z,10.10
2019-04-23T15:17:23.365Z,9.17
2019-04-23T15:20:03.027Z,11.10
2019-04-23T15:25:21.398Z,9.20
2019-04-23T15:28:05.873Z,11.20
2019-04-23T15:29:58.186Z,10.20
2019-04-23T15:32:53.589Z,10.60
2019-04-23T15:35:31.613Z,10.83
2019-04-23T15:38:00.511Z,10.67
2019-04-23T15:40:16.488Z,13.10
2019-04-23T15:42:51.574Z,11.63
2019-04-23T15:45:19.307Z,10.37
2019-04-23T15:47:48.518Z,9.70
2019-04-23T15:50:23.572Z,10.70
2019-04-23T15:55:22.559Z,8.13
2019-04-23T16:00:24.822Z,10.67
2019-04-23T16:02:29.136Z,10.93
2019-04-23T16:05:00.044Z,10.23
2019-04-23T16:07:50.924Z,11.37
2019-04-23T16:10:49.147Z,9.83
2019-04-23T16:13:05.825Z,9.70
2019-04-23T16:15:29.086Z,11.23
2019-04-23T16:18:23.691Z,12.00
2019-04-23T16:23:21.544Z,9.50
2019-04-23T16:25:49.819Z,10.50
2019-04-23T16:28:28.957Z,11.20
2019-04-23T16:31:09.443Z,10.93
2019-04-23T16:33:20.649Z,10.53
2019-04-23T16:36:16.710Z,9.57
2019-04-23T16:38:38.335Z,10.70
2019-04-23T16:41:09.936Z,10.80
2019-04-23T16:43:35.486Z,10.30
2019-04-23T16:48:55.313Z,9.70
2019-04-23T16:53:38.321Z,9.07
2019-04-23T16:56:18.493Z,10.73
2019-04-23T16:58:54.630Z,11.30
2019-04-23T17:01:24.895Z,11.23
2019-04-23T17:04:01.045Z,10.47
2019-04-23T17:06:27.126Z,9.70
2019-04-23T17:08:57.732Z,10.03
2019-04-23T17:11:25.267Z,9.73
2019-04-23T17:14:02.759Z,11.50
2019-04-23T17:19:01.995Z,9.80
2019-04-23T17:21:29.856Z,10.50
2019-04-23T17:24:15.371Z,10.80
2019-04-23T17:26:37.377Z,9.60
2019-04-23T17:34:24.430Z,10.00
2019-04-23T17:37:01.084Z,10.13
2019-04-23T17:40:00.927Z,10.30
2019-04-23T17:48:12.901Z,11.03
2019-04-23T17:53:25.312Z,10.20
2019-04-23T17:56:18.486Z,11.10
2019-04-23T17:58:31.792Z,11.37
2019-04-23T18:01:17.643Z,9.90
2019-04-23T18:03:50.209Z,10.60
2019-04-23T18:06:21.341Z,12.03
2019-04-23T18:13:54.943Z,11.80
2019-04-23T18:16:30.765Z,11.20
2019-04-23T18:21:46.172Z,11.70
2019-04-23T18:27:18.051Z,11.97
2019-04-23T18:37:49.131Z,12.03
2019-04-23T18:40:21.365Z,11.93
2019-04-23T18:42:53.503Z,13.93
2019-04-23T18:45:35.565Z,11.47
2019-04-23T18:48:27.419Z,11.97
2019-04-23T18:53:33.768Z,12.07
2019-04-23T18:56:03.594Z,12.63
2019-04-23T18:58:22.429Z,12.90
2019-04-23T19:04:19.663Z,13.63
2019-04-23T19:06:38.312Z,13.60
2019-04-23T19:10:02.173Z,13.30
2019-04-23T19:12:25.148Z,13.17
2019-04-23T19:17:42.933Z,14.37
2019-04-23T19:20:16.290Z,14.10
2019-04-23T19:22:28.144Z,13.60
2019-04-23T19:24:53.394Z,14.90
2019-04-23T19:27:37.172Z,12.40
2019-04-23T19:38:17.899Z,14.47
2019-04-23T19:43:26.392Z,15.00
2019-04-23T19:46:09.376Z,13.70
2019-04-23T19:48:25.315Z,15.27
2019-04-23T19:51:09.535Z,12.77
2019-04-23T19:53:43.104Z,15.13
2019-04-23T19:56:08.803Z,14.27
2019-04-23T19:58:46.158Z,15.47
2019-04-23T20:11:08.065Z,12.90
2019-04-23T20:21:14.978Z,15.00
2019-04-23T20:24:04.104Z,15.90
2019-04-23T20:34:31.209Z,16.20
2019-04-23T20:36:49.112Z,16.13
2019-04-23T20:39:32.729Z,17.80
2019-04-23T20:42:08.997Z,15.90
2019-04-23T20:44:44.960Z,16.37
2019-04-23T20:49:40.782Z,15.47
2019-04-23T20:52:04.689Z,15.60
2019-04-23T20:54:50.871Z,17.03
2019-04-23T20:57:43.914Z,16.30
2019-04-23T21:05:19.601Z,16.20
2019-04-23T21:07:57.530Z,16.17
2019-04-23T21:10:32.623Z,18.03
2019-04-23T21:13:06.771Z,16.90
2019-04-23T21:31:00.901Z,18.80
2019-04-23T21:33:28.491Z,18.77
2019-04-23T21:36:18.404Z,19.20
2019-04-23T21:39:03.525Z,16.97
2019-04-23T21:49:20.937Z,20.57
2019-04-23T21:51:45.517Z,17.50
2019-04-23T21:53:58.498Z,18.90
2019-04-23T21:56:37.206Z,20.00
2019-04-23T21:59:06.842Z,19.40
2019-04-23T22:01:44.288Z,18.95
2019-04-23T22:04:17.364Z,19.43
2019-04-23T22:06:59.094Z,17.27
2019-04-23T22:09:21.222Z,21.37
2019-04-23T22:11:57.002Z,19.80
2019-04-23T22:14:20.245Z,18.97
2019-04-23T22:24:21.587Z,18.90
2019-04-23T22:26:53.313Z,20.60
2019-04-23T22:29:33.460Z,19.00
2019-04-23T22:32:02.849Z,19.50
2019-04-23T22:34:42.115Z,22.17
2019-04-23T22:37:12.207Z,21.07
2019-04-23T22:39:41.895Z,20.63
2019-04-23T22:47:07.254Z,19.50
2019-04-23T22:50:02.612Z,22.13
2019-04-23T22:55:02.271Z,20.00
2019-04-23T22:57:45.195Z,20.47
2019-04-23T23:00:13.030Z,18.50
2019-04-23T23:02:54.083Z,19.92
2019-04-23T23:05:14.171Z,19.97
2019-04-23T23:07:55.747Z,22.03
2019-04-23T23:10:12.921Z,22.03
2019-04-23T23:12:51.283Z,21.30
2019-04-23T23:15:19.392Z,21.00
2019-04-23T23:18:03.135Z,23.37
2019-04-23T23:20:21.089Z,20.60
2019-04-23T23:23:05.670Z,20.70
2019-04-23T23:27:57.691Z,19.00
2019-04-23T23:30:26.671Z,20.17
2019-04-23T23:32:55.622Z,21.77
2019-04-23T23:38:01.736Z,22.03
2019-04-23T23:40:30.295Z,22.80
2019-04-23T23:45:35.415Z,21.60
2019-04-23T23:50:50.153Z,23.10
2019-04-23T23:55:38.751Z,20.90
2019-04-23T23:58:20.422Z,21.20
